createdAt,value
2023-11-24T06:00:43.289Z,96.09
2023-11-24T06:01:43.357Z,95.99
2023-11-24T06:02:43.206Z,95.68
2023-11-24T06:03:43.248Z,95.89
2023-11-24T06:04:43.485Z,95.37
2023-11-24T06:05:43.224Z,95.68
2023-11-24T06:06:43.191Z,95.78
2023-11-24T06:07:43.148Z,95.68
2023-11-24T06:08:43.144Z,96.14
2023-11-24T06:09:43.160Z,95.89
2023-11-24T06:10:43.152Z,95.58
2023-11-24T06:11:48.138Z,95.89
2023-11-24T06:12:43.115Z,95.89
2023-11-24T06:13:43.081Z,95.83
2023-11-24T06:14:43.091Z,95.78
2023-11-24T06:15:43.072Z,95.99
2023-11-24T06:16:43.126Z,95.73
2023-11-24T06:17:43.090Z,95.58
2023-11-24T06:18:43.058Z,95.06
2023-11-24T06:19:43.020Z,94.96
2023-11-24T06:20:43.018Z,94.96
2023-11-24T06:21:43.053Z,93.88
2023-11-24T06:22:47.998Z,93.37
2023-11-24T06:23:42.960Z,93.79
2023-11-24T06:24:42.993Z,93.68
2023-11-24T06:25:42.987Z,93.79
2023-11-24T06:26:42.972Z,93.79
2023-11-24T06:27:42.948Z,94.65
2023-11-24T06:28:42.907Z,94.34
2023-11-24T06:29:42.907Z,94.85
2023-11-24T06:30:42.911Z,95.00
2023-11-24T06:31:42.878Z,94.96
2023-11-24T06:32:42.918Z,94.85
2023-11-24T06:33:47.972Z,95.37
2023-11-24T06:34:42.921Z,95.52
2023-11-24T06:35:42.833Z,95.17
2023-11-24T06:36:42.841Z,95.89
2023-11-24T06:37:42.817Z,95.83
2023-11-24T06:38:42.842Z,95.73
2023-11-24T06:39:42.840Z,96.61
2023-11-24T06:40:42.776Z,95.99
2023-11-24T06:41:42.774Z,96.30
2023-11-24T06:42:42.875Z,95.89
2023-11-24T06:43:42.756Z,95.68
2023-11-24T06:44:47.788Z,95.48
2023-11-24T06:45:42.749Z,94.96
2023-11-24T06:46:42.738Z,94.76
2023-11-24T06:47:42.802Z,94.55
2023-11-24T06:48:42.755Z,93.73
2023-11-24T06:49:42.678Z,93.73
2023-11-24T06:50:42.711Z,91.25
2023-11-24T06:51:42.666Z,91.62
2023-11-24T06:52:42.774Z,91.05
2023-11-24T06:53:42.637Z,91.21
2023-11-24T06:54:42.645Z,90.90
2023-11-24T06:55:47.630Z,90.08
2023-11-24T06:56:42.613Z,88.64
2023-11-24T06:57:42.601Z,88.74
2023-11-24T06:58:42.589Z,88.95
2023-11-24T06:59:42.584Z,89.25
2023-11-24T07:00:42.682Z,88.84
2023-11-24T07:01:42.728Z,89.46
2023-11-24T07:02:42.585Z,89.87
2023-11-24T07:03:42.607Z,89.97
2023-11-24T07:04:42.532Z,88.74
2023-11-24T07:05:42.497Z,89.36
2023-11-24T07:06:47.575Z,88.23
2023-11-24T07:07:42.499Z,87.92
2023-11-24T07:08:42.484Z,87.81
2023-11-24T07:09:42.464Z,87.60
2023-11-24T07:10:42.490Z,87.36
2023-11-24T07:11:42.430Z,87.36
2023-11-24T07:12:42.466Z,87.05
2023-11-24T07:13:42.417Z,86.79
2023-11-24T07:14:42.417Z,86.33
2023-11-24T07:15:42.395Z,86.23
2023-11-24T07:16:42.493Z,86.43
2023-11-24T07:17:47.519Z,86.33
2023-11-24T07:18:42.435Z,86.33
2023-11-24T07:19:42.402Z,86.85
2023-11-24T07:20:42.351Z,87.15
2023-11-24T07:21:42.342Z,87.36
2023-11-24T07:22:42.305Z,87.92
2023-11-24T07:23:42.300Z,88.39
2023-11-24T07:24:42.295Z,88.49
2023-11-24T07:25:42.271Z,88.59
2023-11-24T07:26:42.296Z,89.11
2023-11-24T07:27:42.266Z,90.03
2023-11-24T07:28:47.278Z,90.39
2023-11-24T07:29:42.227Z,90.14
2023-11-24T07:30:42.221Z,89.77
2023-11-24T07:31:42.216Z,89.77
2023-11-24T07:32:42.275Z,90.45
2023-11-24T07:33:42.199Z,90.90
2023-11-24T07:34:42.232Z,90.28
2023-11-24T07:35:42.197Z,90.90
2023-11-24T07:36:42.272Z,90.18
2023-11-24T07:37:42.142Z,90.39
2023-11-24T07:38:42.147Z,89.97
2023-11-24T07:39:47.151Z,90.28
2023-11-24T07:40:42.115Z,89.87
2023-11-24T07:41:42.099Z,89.73
2023-11-24T07:42:42.101Z,89.62
2023-11-24T07:43:42.077Z,88.90
2023-11-24T07:44:42.079Z,89.01
2023-11-24T07:45:42.131Z,88.70
2023-11-24T07:46:42.078Z,89.31
2023-11-24T07:47:42.053Z,88.59
2023-11-24T07:48:42.044Z,88.18
2023-11-24T07:49:42.011Z,87.77
2023-11-24T07:50:47.079Z,87.36
2023-11-24T07:51:42.058Z,86.54
2023-11-24T07:52:42.017Z,85.68
2023-11-24T07:53:41.960Z,85.92
2023-11-24T07:54:42.069Z,85.78
2023-11-24T07:55:41.973Z,85.36
2023-11-24T07:56:41.934Z,85.06
2023-11-24T07:57:41.980Z,85.57
2023-11-24T07:58:41.913Z,85.47
2023-11-24T07:59:41.903Z,83.89
2023-11-24T08:00:41.918Z,84.23
2023-11-24T08:01:46.928Z,84.09
2023-11-24T08:02:42.031Z,82.69
2023-11-24T08:03:41.899Z,82.86
2023-11-24T08:04:41.966Z,82.48
2023-11-24T08:05:41.836Z,82.79
2023-11-24T08:06:44.974Z,82.55
2023-11-24T08:07:41.802Z,81.97
2023-11-24T08:08:41.826Z,82.18
2023-11-24T08:09:41.822Z,82.34
2023-11-24T08:10:41.772Z,82.76
2023-11-24T08:11:41.761Z,82.76
2023-11-24T08:12:46.808Z,82.55
2023-11-24T08:13:41.744Z,82.24
2023-11-24T08:14:41.753Z,82.14
2023-11-24T08:15:41.817Z,81.83
2023-11-24T08:16:41.746Z,82.45
2023-11-24T08:17:41.736Z,82.76
2023-11-24T08:18:41.693Z,82.34
2023-11-24T08:19:41.687Z,83.13
2023-11-24T08:20:41.698Z,82.34
2023-11-24T08:21:41.693Z,82.34
2023-11-24T08:22:41.648Z,81.79
2023-11-24T08:23:46.678Z,82.14
2023-11-24T08:24:41.654Z,82.31
2023-11-24T08:25:41.604Z,82.20
2023-11-24T08:26:41.607Z,80.97
2023-11-24T08:27:41.607Z,81.07
2023-11-24T08:28:41.589Z,81.18
2023-11-24T08:29:41.558Z,80.05
2023-11-24T08:30:41.574Z,79.74
2023-11-24T08:31:41.550Z,80.35
2023-11-24T08:32:45.357Z,80.35
2023-11-24T08:33:41.547Z,80.66
2023-11-24T08:34:46.545Z,80.46
2023-11-24T08:35:41.500Z,80.56
2023-11-24T08:36:41.589Z,81.90
2023-11-24T08:37:41.469Z,82.34
2023-11-24T08:38:41.504Z,82.86
2023-11-24T08:39:41.504Z,82.55
2023-11-24T08:40:41.437Z,81.42
2023-11-24T08:41:41.426Z,82.76
2023-11-24T08:42:41.487Z,80.91
2023-11-24T08:43:41.427Z,82.14
2023-11-24T08:44:41.423Z,82.76
2023-11-24T08:45:46.443Z,82.86
2023-11-24T08:46:41.455Z,83.00
2023-11-24T08:47:41.385Z,84.54
2023-11-24T08:48:41.409Z,85.06
2023-11-24T08:49:41.341Z,85.20
2023-11-24T08:50:41.338Z,85.20
2023-11-24T08:51:41.379Z,85.82
2023-11-24T08:52:41.338Z,85.92
2023-11-24T08:53:41.302Z,86.43
2023-11-24T08:54:41.364Z,86.95
2023-11-24T08:55:41.295Z,85.86
2023-11-24T08:56:46.344Z,85.24
2023-11-24T08:57:41.270Z,85.44
2023-11-24T08:58:41.241Z,85.49
2023-11-24T08:59:41.233Z,85.86
2023-11-24T09:00:41.235Z,85.69
2023-11-24T09:01:41.303Z,86.37
2023-11-24T09:02:41.324Z,86.21
2023-11-24T09:03:41.321Z,86.72
2023-11-24T09:04:41.259Z,86.10
2023-11-24T09:05:41.165Z,86.52
2023-11-24T09:06:41.212Z,86.61
2023-11-24T09:07:46.175Z,87.24
2023-11-24T09:08:41.138Z,88.06
2023-11-24T09:09:41.135Z,87.54
2023-11-24T09:10:41.102Z,87.85
2023-11-24T09:11:41.134Z,87.54
2023-11-24T09:12:41.109Z,87.48
2023-11-24T09:13:41.069Z,87.38
2023-11-24T09:14:41.119Z,87.65
2023-11-24T09:15:41.080Z,88.10
2023-11-24T09:16:41.059Z,88.37
2023-11-24T09:17:41.035Z,88.41
2023-11-24T09:18:46.087Z,88.47
2023-11-24T09:19:41.016Z,88.41
2023-11-24T09:20:40.998Z,88.92
2023-11-24T09:21:41.034Z,90.26
2023-11-24T09:22:40.966Z,90.72
2023-11-24T09:23:40.966Z,91.54
2023-11-24T09:24:40.984Z,91.60
2023-11-24T09:25:40.933Z,90.41
2023-11-24T09:26:40.945Z,90.88
2023-11-24T09:27:40.948Z,91.19
2023-11-24T09:28:40.920Z,90.67
2023-11-24T09:29:45.921Z,90.78
2023-11-24T09:30:41.009Z,90.88
2023-11-24T09:31:40.958Z,91.60
2023-11-24T09:32:40.905Z,90.57
2023-11-24T09:33:40.936Z,90.51
2023-11-24T09:34:40.915Z,90.67
2023-11-24T09:35:40.839Z,91.60
2023-11-24T09:36:40.849Z,91.40
2023-11-24T09:37:40.816Z,90.59
2023-11-24T09:38:40.825Z,89.83
2023-11-24T09:39:40.808Z,87.90
2023-11-24T09:40:45.936Z,87.22
2023-11-24T09:41:40.792Z,87.12
2023-11-24T09:42:40.758Z,87.57
2023-11-24T09:43:40.772Z,87.98
2023-11-24T09:44:40.765Z,88.43
2023-11-24T09:45:40.785Z,89.36
2023-11-24T09:46:49.068Z,88.84
2023-11-24T09:47:40.937Z,88.74
2023-11-24T09:48:40.710Z,88.84
2023-11-24T09:49:40.675Z,89.56
2023-11-24T09:50:40.708Z,88.64
2023-11-24T09:51:45.694Z,88.74
2023-11-24T09:52:40.633Z,88.95
2023-11-24T09:53:40.623Z,89.56
2023-11-24T09:54:40.663Z,88.74
2023-11-24T09:55:40.610Z,88.95
2023-11-24T09:56:40.609Z,88.95
2023-11-24T09:57:40.593Z,88.95
2023-11-24T09:58:40.575Z,88.12
2023-11-24T09:59:40.591Z,88.53
2023-11-24T10:00:40.581Z,88.95
2023-11-24T10:01:40.729Z,88.33
2023-11-24T10:02:45.737Z,88.29
2023-11-24T10:03:40.654Z,88.18
2023-11-24T10:04:40.566Z,88.02
2023-11-24T10:05:40.513Z,88.08
2023-11-24T10:06:41.003Z,88.49
2023-11-24T10:07:40.468Z,88.39
2023-11-24T10:08:40.476Z,87.77
2023-11-24T10:09:40.477Z,87.67
2023-11-24T10:10:40.435Z,87.98
2023-11-24T10:11:43.045Z,87.46
2023-11-24T10:12:40.470Z,87.36
2023-11-24T10:13:46.630Z,87.67
2023-11-24T10:14:40.453Z,87.67
2023-11-24T10:15:40.438Z,87.05
2023-11-24T10:16:40.367Z,87.36
2023-11-24T10:17:40.397Z,87.57
2023-11-24T10:18:40.482Z,87.46
2023-11-24T10:19:40.349Z,87.36
2023-11-24T10:20:40.331Z,87.36
2023-11-24T10:21:40.394Z,87.87
2023-11-24T10:22:40.302Z,87.46
2023-11-24T10:23:40.298Z,87.46
2023-11-24T10:24:45.314Z,87.77
2023-11-24T10:25:40.281Z,87.46
2023-11-24T10:26:40.253Z,88.08
2023-11-24T10:27:40.278Z,88.08
2023-11-24T10:28:40.241Z,88.49
2023-11-24T10:29:40.227Z,88.49
2023-11-24T10:30:40.300Z,89.01
2023-11-24T10:31:40.238Z,88.29
2023-11-24T10:32:40.225Z,87.98
2023-11-24T10:33:40.349Z,88.80
2023-11-24T10:34:40.227Z,89.28
2023-11-24T10:35:45.181Z,89.17
2023-11-24T10:36:40.156Z,89.07
2023-11-24T10:37:40.146Z,89.48
2023-11-24T10:38:40.181Z,90.51
2023-11-24T10:39:40.231Z,89.79
2023-11-24T10:40:40.108Z,89.75
2023-11-24T10:41:40.108Z,90.16
2023-11-24T10:42:40.155Z,89.48
2023-11-24T10:43:40.068Z,89.23
2023-11-24T10:44:40.054Z,89.48
2023-11-24T10:45:40.128Z,88.51
2023-11-24T10:46:45.331Z,88.92
2023-11-24T10:47:40.081Z,89.75
2023-11-24T10:48:40.044Z,89.69
2023-11-24T10:49:40.008Z,90.51
2023-11-24T10:50:39.986Z,90.30
2023-11-24T10:51:40.029Z,90.92
2023-11-24T10:52:39.975Z,90.72
2023-11-24T10:53:39.991Z,90.00
2023-11-24T10:54:40.121Z,90.00
2023-11-24T10:55:39.947Z,90.24
2023-11-24T10:56:40.708Z,90.51
2023-11-24T10:57:45.036Z,90.41
2023-11-24T10:58:39.900Z,90.41
2023-11-24T10:59:40.175Z,90.20
2023-11-24T11:00:40.002Z,90.00
2023-11-24T11:01:40.046Z,89.75
2023-11-24T11:02:39.940Z,89.89
2023-11-24T11:03:39.981Z,89.89
2023-11-24T11:04:39.844Z,89.13
2023-11-24T11:05:39.846Z,89.03
2023-11-24T11:06:39.936Z,88.41
2023-11-24T11:07:39.813Z,88.20
2023-11-24T11:08:44.845Z,87.49
2023-11-24T11:09:39.825Z,87.07
2023-11-24T11:10:39.819Z,87.07
2023-11-24T11:11:39.768Z,87.13
2023-11-24T11:12:39.757Z,87.45
2023-11-24T11:13:39.732Z,87.07
2023-11-24T11:14:39.717Z,86.66
2023-11-24T11:15:39.788Z,86.05
2023-11-24T11:16:39.747Z,86.25
2023-11-24T11:17:40.067Z,85.18
2023-11-24T11:18:39.732Z,84.98
2023-11-24T11:19:44.691Z,85.04
2023-11-24T11:20:39.662Z,84.39
2023-11-24T11:21:39.693Z,83.32
2023-11-24T11:22:39.640Z,83.05
2023-11-24T11:23:39.628Z,82.13
2023-11-24T11:24:39.640Z,83.46
2023-11-24T11:25:39.835Z,83.29
2023-11-24T11:26:39.636Z,82.89
2023-11-24T11:27:39.666Z,83.19
2023-11-24T11:28:39.563Z,83.19
2023-11-24T11:29:39.564Z,84.05
2023-11-24T11:30:44.585Z,82.92
2023-11-24T11:31:39.970Z,82.51
2023-11-24T11:32:39.542Z,82.71
2023-11-24T11:33:39.527Z,83.13
2023-11-24T11:34:39.653Z,82.51
2023-11-24T11:35:39.490Z,82.71
2023-11-24T11:36:39.546Z,82.71
2023-11-24T11:37:39.471Z,82.82
2023-11-24T11:38:39.459Z,82.71
2023-11-24T11:39:39.607Z,82.92
2023-11-24T11:40:39.461Z,82.82
2023-11-24T11:41:44.446Z,82.92
2023-11-24T11:42:39.467Z,82.20
2023-11-24T11:43:39.488Z,82.82
2023-11-24T11:44:39.425Z,82.68
2023-11-24T11:45:39.477Z,82.68
2023-11-24T11:46:39.450Z,81.76
2023-11-24T11:47:39.396Z,81.24
2023-11-24T11:48:39.493Z,80.01
2023-11-24T11:49:39.345Z,81.34
2023-11-24T11:50:39.349Z,80.21
2023-11-24T11:51:39.442Z,79.39
2023-11-24T11:52:44.392Z,80.52
2023-11-24T11:53:39.297Z,80.52
2023-11-24T11:54:39.464Z,79.94
2023-11-24T11:55:39.287Z,79.39
2023-11-24T11:56:39.254Z,79.70
2023-11-24T11:57:39.421Z,79.63
2023-11-24T11:58:39.243Z,79.53
2023-11-24T11:59:39.234Z,79.29
2023-11-24T12:00:39.383Z,79.80
2023-11-24T12:01:39.297Z,79.94
2023-11-24T12:02:39.312Z,79.08
2023-11-24T12:03:44.483Z,78.88
2023-11-24T12:04:39.210Z,79.19
2023-11-24T12:05:39.169Z,78.36
2023-11-24T12:06:39.352Z,78.16
2023-11-24T12:07:41.174Z,78.36
2023-11-24T12:08:39.150Z,78.78
2023-11-24T12:09:39.156Z,78.57
2023-11-24T12:10:39.099Z,78.02
2023-11-24T12:11:39.102Z,78.47
2023-11-24T12:12:39.087Z,78.64
2023-11-24T12:13:40.630Z,77.40
2023-11-24T12:14:44.097Z,77.30
2023-11-24T12:15:39.106Z,76.58
2023-11-24T12:16:39.106Z,76.28
2023-11-24T12:17:39.045Z,76.28
2023-11-24T12:18:39.017Z,76.51
2023-11-24T12:19:41.256Z,77.85
2023-11-24T12:20:38.990Z,77.34
2023-11-24T12:21:38.992Z,77.65
2023-11-24T12:22:39.053Z,77.85
2023-11-24T12:23:38.990Z,78.12
2023-11-24T12:24:38.978Z,77.61
2023-11-24T12:25:43.954Z,77.55
2023-11-24T12:26:38.937Z,77.85
2023-11-24T12:27:38.918Z,78.27
2023-11-24T12:28:38.914Z,79.15
2023-11-24T12:29:38.903Z,78.81
2023-11-24T12:30:38.910Z,77.71
2023-11-24T12:31:40.709Z,78.23
2023-11-24T12:32:38.881Z,78.74
2023-11-24T12:33:38.848Z,79.66
2023-11-24T12:34:38.853Z,80.01
2023-11-24T12:35:38.840Z,79.70
2023-11-24T12:36:43.901Z,80.01
2023-11-24T12:37:41.093Z,80.52
2023-11-24T12:38:38.835Z,79.84
2023-11-24T12:39:38.780Z,79.84
2023-11-24T12:40:38.796Z,79.80
2023-11-24T12:41:38.756Z,80.35
2023-11-24T12:42:38.743Z,79.98
2023-11-24T12:43:38.759Z,79.77
2023-11-24T12:44:38.718Z,80.29
2023-11-24T12:45:38.749Z,80.19
2023-11-24T12:46:38.756Z,81.21
2023-11-24T12:47:43.786Z,82.96
2023-11-24T12:48:38.677Z,83.78
2023-11-24T12:49:38.679Z,85.68
2023-11-24T12:50:38.674Z,86.08
2023-11-24T12:51:38.642Z,85.68
2023-11-24T12:52:38.686Z,85.65
2023-11-24T12:53:38.633Z,84.25
2023-11-24T12:54:38.651Z,84.49
2023-11-24T12:55:38.610Z,85.97
2023-11-24T12:56:38.592Z,86.63
2023-11-24T12:57:38.580Z,87.60
2023-11-24T12:58:43.619Z,87.95
2023-11-24T12:59:38.570Z,89.03
2023-11-24T13:00:38.547Z,90.02
2023-11-24T13:01:38.549Z,90.58
2023-11-24T13:02:38.538Z,90.26
2023-11-24T13:03:38.561Z,91.92
2023-11-24T13:04:38.621Z,91.40
2023-11-24T13:05:38.489Z,90.78
2023-11-24T13:06:38.477Z,91.82
2023-11-24T13:07:38.529Z,92.33
2023-11-24T13:08:38.460Z,92.58
2023-11-24T13:09:43.515Z,93.62
2023-11-24T13:10:38.461Z,93.41
2023-11-24T13:11:38.451Z,93.10
2023-11-24T13:12:38.430Z,93.62
2023-11-24T13:13:38.399Z,93.76
2023-11-24T13:14:38.454Z,94.07
2023-11-24T13:15:38.387Z,94.18
2023-11-24T13:16:38.508Z,94.38
2023-11-24T13:17:38.419Z,94.69
2023-11-24T13:18:38.355Z,94.79
2023-11-24T13:19:38.351Z,94.38
2023-11-24T13:20:43.344Z,94.07
2023-11-24T13:21:38.311Z,94.79
2023-11-24T13:22:38.341Z,94.90
2023-11-24T13:23:38.343Z,95.52
2023-11-24T13:24:38.417Z,96.20
2023-11-24T13:25:38.392Z,96.20
2023-11-24T13:26:38.258Z,95.27
2023-11-24T13:27:38.289Z,95.10
2023-11-24T13:28:38.333Z,94.59
2023-11-24T13:29:38.218Z,94.28
2023-11-24T13:30:38.208Z,95.42
2023-11-24T13:31:43.223Z,94.43
2023-11-24T13:32:38.239Z,94.32
2023-11-24T13:33:38.182Z,94.01
2023-11-24T13:34:38.306Z,94.22
2023-11-24T13:35:38.151Z,93.76
2023-11-24T13:36:38.142Z,93.91
2023-11-24T13:37:38.171Z,94.12
2023-11-24T13:38:38.135Z,93.49
2023-11-24T13:39:38.106Z,92.83
2023-11-24T13:40:38.155Z,92.93
2023-11-24T13:41:38.114Z,92.52
2023-11-24T13:42:43.398Z,92.93
2023-11-24T13:43:38.092Z,92.63
2023-11-24T13:44:38.088Z,91.49
2023-11-24T13:45:38.053Z,90.20
2023-11-24T13:46:38.145Z,89.48
2023-11-24T13:47:38.033Z,88.61
2023-11-24T13:48:38.011Z,88.82
2023-11-24T13:49:38.004Z,87.48
2023-11-24T13:50:37.992Z,86.51
2023-11-24T13:51:38.020Z,87.13
2023-11-24T13:52:38.008Z,87.13
2023-11-24T13:53:42.974Z,86.51
2023-11-24T13:54:37.947Z,86.51
2023-11-24T13:55:37.935Z,86.36
2023-11-24T13:56:37.928Z,85.85
2023-11-24T13:57:37.948Z,85.75
2023-11-24T13:58:37.905Z,85.75
2023-11-24T13:59:37.888Z,85.75
2023-11-24T14:00:37.880Z,85.75
2023-11-24T14:01:38.008Z,86.61
2023-11-24T14:02:38.111Z,86.57
2023-11-24T14:03:38.021Z,87.29
2023-11-24T14:04:42.953Z,88.02
2023-11-24T14:05:37.826Z,87.60
2023-11-24T14:06:37.826Z,87.60
2023-11-24T14:07:37.828Z,88.02
2023-11-24T14:08:37.790Z,88.22
2023-11-24T14:09:37.773Z,87.60
2023-11-24T14:10:37.804Z,89.15
2023-11-24T14:11:37.763Z,88.84
2023-11-24T14:12:37.763Z,88.53
2023-11-24T14:13:37.788Z,87.60
2023-11-24T14:14:37.745Z,88.12
2023-11-24T14:15:44.547Z,88.02
2023-11-24T14:16:37.751Z,88.43
2023-11-24T14:17:37.716Z,87.71
2023-11-24T14:18:37.673Z,86.57
2023-11-24T14:19:37.665Z,83.48
2023-11-24T14:20:37.649Z,84.27
2023-11-24T14:21:37.653Z,82.92
2023-11-24T14:22:37.627Z,83.44
2023-11-24T14:23:37.626Z,84.27
2023-11-24T14:24:37.621Z,83.54
2023-11-24T14:25:37.592Z,83.44
2023-11-24T14:26:42.605Z,83.75
2023-11-24T14:27:37.586Z,82.75
2023-11-24T14:28:37.631Z,82.86
2023-11-24T14:29:37.593Z,82.71
2023-11-24T14:30:37.539Z,81.17
2023-11-24T14:31:37.576Z,81.37
2023-11-24T14:32:37.656Z,82.20
2023-11-24T14:33:37.558Z,81.41
2023-11-24T14:34:37.534Z,81.62
2023-11-24T14:35:37.481Z,81.62
2023-11-24T14:36:37.478Z,81.51
2023-11-24T14:37:42.496Z,81.62
2023-11-24T14:38:37.459Z,81.72
2023-11-24T14:39:37.488Z,82.14
2023-11-24T14:40:37.480Z,82.51
2023-11-24T14:41:37.433Z,82.75
2023-11-24T14:42:37.403Z,81.72
2023-11-24T14:43:37.454Z,81.10
2023-11-24T14:44:37.380Z,80.58
2023-11-24T14:45:37.397Z,80.38
2023-11-24T14:46:37.450Z,79.97
2023-11-24T14:47:37.388Z,80.90
2023-11-24T14:48:42.388Z,80.07
2023-11-24T14:49:37.354Z,79.45
2023-11-24T14:50:37.325Z,79.14
2023-11-24T14:51:37.333Z,78.73
2023-11-24T14:52:37.366Z,78.42
2023-11-24T14:53:37.280Z,78.52
2023-11-24T14:54:37.276Z,78.83
2023-11-24T14:55:37.258Z,79.55
2023-11-24T14:56:37.247Z,80.48
2023-11-24T14:57:37.285Z,80.69
2023-11-24T14:58:37.230Z,79.14
2023-11-24T14:59:42.234Z,80.18
2023-11-24T15:00:37.199Z,78.94
2023-11-24T15:01:37.341Z,79.18
2023-11-24T15:02:37.297Z,79.49
2023-11-24T15:03:37.195Z,80.00
2023-11-24T15:04:37.339Z,80.11
2023-11-24T15:05:37.151Z,80.83
2023-11-24T15:06:37.159Z,80.62
2023-11-24T15:07:37.125Z,80.93
2023-11-24T15:08:37.116Z,81.04
2023-11-24T15:09:37.150Z,80.52
2023-11-24T15:10:42.118Z,80.83
2023-11-24T15:11:37.087Z,80.04
2023-11-24T15:12:37.071Z,79.49
2023-11-24T15:13:37.069Z,80.15
2023-11-24T15:14:37.049Z,80.21
2023-11-24T15:15:37.084Z,80.11
2023-11-24T15:16:37.113Z,79.69
2023-11-24T15:17:37.174Z,80.00
2023-11-24T15:18:37.014Z,80.21
2023-11-24T15:19:37.007Z,80.87
2023-11-24T15:20:36.990Z,80.87
2023-11-24T15:21:42.047Z,80.04
2023-11-24T15:22:36.995Z,79.83
2023-11-24T15:23:36.955Z,80.15
2023-11-24T15:24:36.973Z,79.63
2023-11-24T15:25:37.037Z,79.94
2023-11-24T15:26:36.942Z,80.76
2023-11-24T15:27:36.910Z,81.07
2023-11-24T15:28:36.944Z,80.56
2023-11-24T15:29:37.070Z,79.94
2023-11-24T15:30:36.908Z,80.66
2023-11-24T15:31:36.952Z,81.18
2023-11-24T15:32:41.915Z,81.59
2023-11-24T15:33:36.844Z,81.70
2023-11-24T15:34:36.990Z,81.32
2023-11-24T15:35:36.827Z,81.11
2023-11-24T15:36:36.802Z,80.90
2023-11-24T15:37:36.792Z,81.42
2023-11-24T15:38:36.835Z,80.76
2023-11-24T15:39:36.776Z,80.80
2023-11-24T15:40:36.759Z,81.28
2023-11-24T15:41:36.748Z,80.90
2023-11-24T15:42:36.748Z,80.80
2023-11-24T15:43:41.761Z,81.63
2023-11-24T15:44:36.749Z,81.11
2023-11-24T15:45:36.700Z,81.52
2023-11-24T15:46:36.755Z,81.52
2023-11-24T15:47:39.284Z,81.15
2023-11-24T15:48:36.727Z,81.21
2023-11-24T15:49:36.686Z,80.70
2023-11-24T15:50:36.688Z,80.84
2023-11-24T15:51:36.637Z,81.46
2023-11-24T15:52:36.628Z,81.46
2023-11-24T15:53:36.619Z,81.77
2023-11-24T15:54:41.966Z,82.18
2023-11-24T15:55:36.595Z,82.18
2023-11-24T15:56:36.637Z,81.67
2023-11-24T15:57:36.570Z,82.80
2023-11-24T15:58:36.573Z,82.90
2023-11-24T15:59:38.145Z,82.08
2023-11-24T16:00:36.538Z,82.80
2023-11-24T16:01:36.596Z,83.42
2023-11-24T16:02:36.618Z,82.80
2023-11-24T16:03:36.581Z,82.90
2023-11-24T16:04:36.683Z,82.80
2023-11-24T16:05:41.506Z,82.60
2023-11-24T16:06:36.474Z,83.11
2023-11-24T16:07:36.471Z,82.70
2023-11-24T16:08:36.468Z,82.90
2023-11-24T16:09:36.434Z,81.98
2023-11-24T16:10:36.488Z,82.22
2023-11-24T16:11:36.414Z,82.39
2023-11-24T16:12:36.414Z,82.22
2023-11-24T16:13:36.399Z,83.25
2023-11-24T16:14:36.410Z,83.73
2023-11-24T16:15:36.370Z,83.15
2023-11-24T16:16:44.098Z,83.05
2023-11-24T16:17:36.396Z,82.70
2023-11-24T16:18:36.390Z,82.43
2023-11-24T16:19:36.325Z,82.50
2023-11-24T16:20:36.361Z,82.53
2023-11-24T16:21:36.318Z,82.53
2023-11-24T16:22:36.335Z,81.19
2023-11-24T16:23:36.284Z,82.43
2023-11-24T16:24:36.281Z,82.84
2023-11-24T16:25:36.276Z,83.15
2023-11-24T16:26:36.283Z,83.15
2023-11-24T16:27:42.380Z,81.29
2023-11-24T16:28:36.238Z,82.90
2023-11-24T16:29:36.240Z,82.29
2023-11-24T16:30:36.216Z,81.98
2023-11-24T16:31:36.300Z,81.81
2023-11-24T16:32:36.237Z,81.91
2023-11-24T16:33:36.177Z,82.12
2023-11-24T16:34:36.174Z,82.64
2023-11-24T16:35:36.238Z,81.70
2023-11-24T16:36:36.178Z,81.70
2023-11-24T16:37:36.232Z,82.53
2023-11-24T16:38:41.271Z,82.50
2023-11-24T16:39:36.129Z,82.53
2023-11-24T16:40:36.185Z,82.08
2023-11-24T16:41:36.125Z,81.56
2023-11-24T16:42:36.080Z,81.56
2023-11-24T16:43:36.071Z,81.56
2023-11-24T16:44:36.068Z,81.35
2023-11-24T16:45:36.050Z,81.98
2023-11-24T16:46:36.094Z,81.98
2023-11-24T16:47:36.083Z,81.35
2023-11-24T16:48:36.005Z,81.15
2023-11-24T16:49:41.023Z,81.87
2023-11-24T16:50:36.008Z,81.39
2023-11-24T16:51:36.020Z,81.49
2023-11-24T16:52:36.013Z,81.81
2023-11-24T16:53:35.954Z,81.49
2023-11-24T16:54:35.952Z,81.60
2023-11-24T16:55:35.951Z,81.70
2023-11-24T16:56:35.968Z,81.39
2023-11-24T16:57:35.905Z,81.39
2023-11-24T16:58:35.973Z,82.95
2023-11-24T16:59:35.897Z,82.32
2023-11-24T17:00:40.911Z,81.39
2023-11-24T17:01:35.935Z,81.81
2023-11-24T17:02:36.138Z,81.60
2023-11-24T17:03:35.862Z,80.77
2023-11-24T17:04:35.872Z,80.98
2023-11-24T17:05:35.825Z,80.77
2023-11-24T17:06:35.833Z,80.36
2023-11-24T17:07:35.800Z,81.19
2023-11-24T17:08:35.834Z,81.09
2023-11-24T17:09:35.807Z,80.98
2023-11-24T17:10:35.786Z,80.98
2023-11-24T17:11:40.774Z,80.15
2023-11-24T17:12:35.743Z,81.09
2023-11-24T17:13:35.741Z,81.49
2023-11-24T17:14:35.760Z,81.39
2023-11-24T17:15:35.713Z,80.67
2023-11-24T17:16:35.752Z,79.57
2023-11-24T17:17:35.704Z,79.74
2023-11-24T17:18:35.700Z,79.63
2023-11-24T17:19:35.724Z,79.43
2023-11-24T17:20:35.688Z,79.43
2023-11-24T17:21:35.681Z,80.15
2023-11-24T17:22:40.715Z,80.77
2023-11-24T17:23:35.634Z,80.26
2023-11-24T17:24:35.640Z,80.77
2023-11-24T17:25:37.411Z,80.36
2023-11-24T17:26:35.611Z,79.63
2023-11-24T17:27:35.590Z,78.70
2023-11-24T17:28:35.640Z,77.87
2023-11-24T17:29:35.560Z,78.60
2023-11-24T17:30:35.545Z,77.98
2023-11-24T17:31:35.582Z,78.60
2023-11-24T17:32:35.592Z,78.39
2023-11-24T17:33:40.812Z,78.08
2023-11-24T17:34:35.603Z,78.39
2023-11-24T17:35:35.492Z,78.29
2023-11-24T17:36:35.480Z,78.85
2023-11-24T17:37:35.479Z,78.50
2023-11-24T17:38:35.477Z,78.91
2023-11-24T17:39:35.452Z,78.91
2023-11-24T17:40:35.462Z,78.81
2023-11-24T17:41:35.429Z,78.29
2023-11-24T17:42:35.457Z,77.98
2023-11-24T17:43:35.468Z,78.29
2023-11-24T17:44:40.464Z,78.50
2023-11-24T17:45:35.382Z,78.08
2023-11-24T17:46:38.722Z,77.77
2023-11-24T17:47:35.460Z,77.67
2023-11-24T17:48:35.359Z,77.98
2023-11-24T17:49:35.341Z,77.98
2023-11-24T17:50:35.351Z,78.19
2023-11-24T17:51:35.339Z,78.39
2023-11-24T17:52:35.312Z,78.29
2023-11-24T17:53:35.291Z,78.70
2023-11-24T17:54:35.279Z,78.91
2023-11-24T17:55:40.314Z,79.02
2023-11-24T17:56:35.289Z,77.98
2023-11-24T17:57:35.254Z,78.39
2023-11-24T17:58:35.249Z,77.98
2023-11-24T17:59:35.225Z,78.50
2023-11-24T18:00:35.258Z,78.81
2023-11-24T18:01:35.429Z,78.43
2023-11-24T18:02:35.288Z,79.57
2023-11-24T18:03:35.210Z,78.81
2023-11-24T18:04:35.212Z,78.19
2023-11-24T18:05:35.169Z,78.33
2023-11-24T18:06:40.190Z,79.02
2023-11-24T18:07:35.139Z,79.05
2023-11-24T18:08:35.220Z,79.12
2023-11-24T18:09:35.114Z,78.85
2023-11-24T18:10:35.164Z,79.47
2023-11-24T18:11:35.127Z,79.26
2023-11-24T18:12:35.092Z,78.95
2023-11-24T18:13:35.104Z,78.74
2023-11-24T18:14:35.088Z,79.36
2023-11-24T18:15:35.058Z,79.77
2023-11-24T18:16:35.103Z,80.29
2023-11-24T18:17:40.067Z,80.08
2023-11-24T18:18:35.024Z,80.19
2023-11-24T18:19:35.013Z,79.67
2023-11-24T18:20:35.033Z,79.16
2023-11-24T18:21:34.982Z,79.77
2023-11-24T18:22:34.991Z,80.19
2023-11-24T18:23:34.962Z,80.50
2023-11-24T18:24:34.956Z,79.77
2023-11-24T18:25:37.678Z,80.19
2023-11-24T18:26:34.940Z,80.22
2023-11-24T18:27:34.944Z,80.29
2023-11-24T18:28:39.931Z,80.43
2023-11-24T18:29:34.902Z,80.12
2023-11-24T18:30:34.909Z,81.05
2023-11-24T18:31:34.982Z,80.64
2023-11-24T18:32:34.939Z,80.43
2023-11-24T18:33:34.854Z,80.33
2023-11-24T18:34:34.910Z,80.43
2023-11-24T18:35:34.853Z,80.54
2023-11-24T18:36:34.814Z,80.43
2023-11-24T18:37:34.951Z,80.64
2023-11-24T18:38:34.838Z,80.33
2023-11-24T18:39:39.814Z,80.85
2023-11-24T18:40:34.868Z,80.33
2023-11-24T18:41:34.762Z,80.43
2023-11-24T18:42:34.756Z,80.43
2023-11-24T18:43:39.812Z,80.33
2023-11-24T18:44:34.738Z,80.43
2023-11-24T18:45:34.722Z,79.71
2023-11-24T18:46:34.723Z,80.22
2023-11-24T18:47:34.761Z,80.54
2023-11-24T18:48:34.771Z,79.67
2023-11-24T18:49:34.788Z,79.26
2023-11-24T18:50:39.683Z,79.30
2023-11-24T18:51:34.649Z,79.67
2023-11-24T18:52:34.659Z,79.30